createdAt,value
2023-08-05T00:01:30.059Z,75.39
2023-08-05T00:03:58.348Z,75.82
2023-08-05T00:06:28.094Z,76.04
2023-08-05T00:08:56.350Z,76.05
2023-08-05T00:11:24.664Z,76.06
2023-08-05T00:13:52.899Z,76.31
2023-08-05T00:16:21.313Z,76.44
2023-08-05T00:18:49.622Z,76.56
2023-08-05T00:21:18.972Z,76.90
2023-08-05T00:23:48.674Z,77.29
2023-08-05T00:26:17.600Z,77.53
2023-08-05T00:28:45.916Z,78.03
2023-08-05T00:31:15.228Z,78.53
2023-08-05T00:33:43.537Z,78.54
2023-08-05T00:36:11.837Z,78.89
2023-08-05T00:38:40.154Z,79.51
2023-08-05T00:41:10.134Z,80.26
2023-08-05T00:43:38.429Z,80.48
2023-08-05T00:46:07.162Z,80.52
2023-08-05T00:48:35.512Z,80.62
2023-08-05T00:51:04.443Z,81.19
2023-08-05T00:53:34.404Z,81.26
2023-08-05T00:56:03.147Z,81.41
2023-08-05T00:58:34.310Z,81.38
2023-08-05T01:01:04.106Z,81.76
2023-08-05T01:03:32.642Z,82.15
2023-08-05T01:06:02.416Z,82.25
2023-08-05T01:08:32.148Z,82.89
2023-08-05T01:11:02.377Z,83.12
2023-08-05T01:13:34.310Z,83.25
2023-08-05T01:16:02.712Z,83.43
2023-08-05T01:18:32.408Z,83.40
2023-08-05T01:21:05.302Z,83.58
2023-08-05T01:23:49.177Z,83.34
2023-08-05T01:26:19.134Z,83.67
2023-08-05T01:28:47.974Z,83.95
2023-08-05T01:31:18.077Z,83.65
2023-08-05T01:33:47.918Z,83.78
2023-08-05T01:36:22.169Z,84.10
2023-08-05T01:38:51.097Z,84.27
2023-08-05T01:41:21.073Z,84.26
2023-08-05T01:43:50.418Z,84.81
2023-08-05T01:46:18.929Z,84.48
2023-08-05T01:48:48.521Z,84.81
2023-08-05T01:51:16.838Z,85.08
2023-08-05T01:53:45.603Z,84.84
2023-08-05T01:56:13.931Z,85.07
2023-08-05T01:58:43.606Z,85.22
2023-08-05T02:01:11.951Z,85.54
2023-08-05T02:03:40.480Z,85.58
2023-08-05T02:06:09.152Z,85.50
2023-08-05T02:08:38.459Z,85.38
2023-08-05T02:11:06.843Z,85.40
2023-08-05T02:13:35.176Z,85.48
2023-08-05T02:16:06.707Z,85.79
2023-08-05T02:18:35.240Z,85.78
2023-08-05T02:21:03.523Z,85.66
2023-08-05T02:23:32.742Z,85.25
2023-08-05T02:26:02.453Z,85.57
2023-08-05T02:28:30.772Z,85.88
2023-08-05T02:30:59.173Z,85.76
2023-08-05T02:33:28.922Z,85.00
2023-08-05T02:35:59.224Z,85.00
2023-08-05T02:38:27.672Z,85.26
2023-08-05T02:40:56.097Z,85.56
2023-08-05T02:43:24.450Z,85.80
2023-08-05T02:45:56.577Z,85.84
2023-08-05T02:48:25.073Z,87.03
2023-08-05T02:50:56.560Z,88.00
2023-08-05T02:53:25.142Z,88.50
2023-08-05T02:55:53.802Z,88.55
2023-08-05T02:58:22.191Z,88.69
2023-08-05T03:00:50.628Z,89.49
2023-08-05T03:03:19.271Z,89.38
2023-08-05T03:05:47.825Z,89.20
2023-08-05T03:08:17.769Z,88.75
2023-08-05T03:10:46.401Z,88.96
2023-08-05T03:13:15.515Z,88.77
2023-08-05T03:15:44.751Z,88.76
2023-08-05T03:18:18.676Z,88.88
2023-08-05T03:20:48.345Z,88.76
2023-08-05T03:23:20.610Z,88.48
2023-08-05T03:25:52.906Z,88.49
2023-08-05T03:28:21.542Z,88.84
2023-08-05T03:30:53.450Z,88.74
2023-08-05T03:33:28.148Z,89.06
2023-08-05T03:35:58.347Z,89.44
2023-08-05T03:38:30.285Z,88.99
2023-08-05T03:41:02.989Z,88.78
2023-08-05T03:43:31.354Z,88.58
2023-08-05T03:45:59.730Z,88.76
2023-08-05T03:48:28.093Z,89.12
2023-08-05T03:50:56.904Z,89.22
2023-08-05T03:53:25.304Z,89.44
2023-08-05T03:55:56.257Z,89.38
2023-08-05T03:58:24.802Z,89.49
2023-08-05T04:00:54.614Z,89.47
2023-08-05T04:03:23.994Z,89.53
2023-08-05T04:05:52.359Z,89.56
2023-08-05T04:08:21.306Z,89.65
2023-08-05T04:10:49.683Z,89.82
2023-08-05T04:13:22.598Z,90.21
2023-08-05T04:15:54.979Z,90.51
2023-08-05T04:18:23.955Z,91.14
2023-08-05T04:20:52.553Z,91.62
2023-08-05T04:23:22.545Z,92.20
2023-08-05T04:25:50.855Z,92.47
2023-08-05T04:28:20.612Z,92.41
2023-08-05T04:30:49.944Z,92.68
2023-08-05T04:33:18.225Z,93.02
2023-08-05T04:35:50.440Z,92.76
2023-08-05T04:38:18.909Z,93.32
2023-08-05T04:40:47.254Z,93.10
2023-08-05T04:43:15.556Z,92.76
2023-08-05T04:45:45.477Z,93.08
2023-08-05T04:48:15.159Z,92.96
2023-08-05T04:50:43.554Z,92.97
2023-08-05T04:53:11.862Z,93.35
2023-08-05T04:55:42.079Z,93.09
2023-08-05T04:58:12.023Z,93.13
2023-08-05T05:00:40.459Z,93.15
2023-08-05T05:03:10.255Z,93.37
2023-08-05T05:05:38.696Z,93.62
2023-08-05T05:08:07.025Z,93.99
2023-08-05T05:10:35.305Z,94.00
2023-08-05T05:13:03.717Z,94.04
2023-08-05T05:15:32.475Z,93.84
2023-08-05T05:18:00.799Z,93.97
2023-08-05T05:20:31.455Z,94.78
2023-08-05T05:22:59.694Z,94.20
2023-08-05T05:25:28.011Z,94.45
2023-08-05T05:27:56.320Z,95.00
2023-08-05T05:30:24.727Z,95.20
2023-08-05T05:32:53.164Z,94.97
2023-08-05T05:35:21.534Z,95.28
2023-08-05T05:37:51.233Z,95.49
2023-08-05T05:40:19.490Z,95.82
2023-08-05T05:42:49.451Z,95.59
2023-08-05T05:45:18.382Z,96.04
2023-08-05T05:47:47.145Z,96.38
2023-08-05T05:50:15.487Z,95.84
2023-08-05T05:52:43.712Z,95.77
2023-08-05T05:55:13.403Z,95.82
2023-08-05T05:57:41.755Z,96.06
2023-08-05T06:00:11.179Z,95.84
2023-08-05T06:02:42.062Z,95.98
2023-08-05T06:05:10.931Z,95.90
2023-08-05T06:07:39.210Z,96.21
2023-08-05T06:10:08.585Z,95.82
2023-08-05T06:12:39.166Z,95.92
2023-08-05T06:15:09.103Z,95.99
2023-08-05T06:17:37.458Z,96.44
2023-08-05T06:20:06.798Z,95.87
2023-08-05T06:22:35.117Z,96.06
2023-08-05T06:25:03.564Z,96.55
2023-08-05T06:27:31.807Z,96.70
2023-08-05T06:30:01.637Z,95.93
2023-08-05T06:32:30.118Z,95.98
2023-08-05T06:34:58.490Z,95.91
2023-08-05T06:37:26.726Z,96.14
2023-08-05T06:39:55.034Z,95.70
2023-08-05T06:42:25.295Z,95.55
2023-08-05T06:44:53.766Z,95.78
2023-08-05T06:47:23.434Z,95.60
2023-08-05T06:49:51.770Z,95.46
2023-08-05T06:52:19.963Z,95.38
2023-08-05T06:54:48.416Z,95.41
2023-08-05T06:57:17.113Z,95.47
2023-08-05T06:59:45.909Z,95.08
2023-08-05T07:02:14.168Z,93.66
2023-08-05T07:04:43.896Z,94.16
2023-08-05T07:07:12.428Z,93.43
2023-08-05T07:09:40.777Z,93.15
2023-08-05T07:12:09.957Z,92.20
2023-08-05T07:14:39.374Z,91.91
2023-08-05T07:17:08.680Z,91.32
2023-08-05T07:19:37.006Z,91.16
2023-08-05T07:22:07.277Z,90.70
2023-08-05T07:24:36.521Z,90.93
2023-08-05T07:27:05.373Z,90.97
2023-08-05T07:29:33.725Z,90.21
2023-08-05T07:32:02.068Z,89.85
2023-08-05T07:34:32.966Z,89.68
2023-08-05T07:37:01.779Z,89.87
2023-08-05T07:39:35.030Z,89.47
2023-08-05T07:42:04.845Z,89.71
2023-08-05T07:44:33.582Z,89.18
2023-08-05T07:47:02.345Z,89.33
2023-08-05T07:49:30.663Z,89.47
2023-08-05T07:51:59.033Z,89.15
2023-08-05T07:54:27.983Z,88.67
2023-08-05T07:57:00.159Z,88.49
2023-08-05T07:59:28.986Z,88.50
2023-08-05T08:01:57.596Z,87.71
2023-08-05T08:04:25.854Z,86.82
2023-08-05T08:06:54.145Z,86.57
2023-08-05T08:09:22.637Z,85.87
2023-08-05T08:11:51.717Z,85.62
2023-08-05T08:14:21.594Z,83.33
2023-08-05T08:16:50.261Z,82.02
2023-08-05T08:19:20.229Z,79.56
2023-08-05T08:21:48.737Z,78.65
2023-08-05T08:24:18.339Z,76.35
2023-08-05T08:26:46.711Z,75.03
2023-08-05T08:29:15.209Z,72.75
2023-08-05T08:31:45.055Z,70.78
2023-08-05T08:34:13.359Z,68.00
2023-08-05T08:36:41.674Z,66.41
2023-08-05T08:39:09.925Z,67.32
2023-08-05T08:41:42.898Z,69.02
2023-08-05T08:44:11.691Z,70.00
2023-08-05T08:46:40.240Z,70.30
2023-08-05T08:49:10.471Z,69.88
2023-08-05T08:51:40.734Z,71.91
2023-08-05T08:54:10.119Z,73.00
2023-08-05T08:56:38.576Z,73.03
2023-08-05T08:59:07.147Z,73.19
2023-08-05T09:01:36.655Z,73.53
2023-08-05T09:04:07.610Z,73.57
2023-08-05T09:06:39.742Z,73.29
2023-08-05T09:09:08.339Z,72.85
2023-08-05T09:11:37.291Z,73.77
2023-08-05T09:14:05.755Z,72.88
2023-08-05T09:16:34.043Z,73.20
2023-08-05T09:19:03.701Z,73.19
2023-08-05T09:21:32.014Z,72.86
2023-08-05T09:24:02.961Z,73.08
2023-08-05T09:26:32.626Z,71.63
2023-08-05T09:29:02.061Z,71.10
2023-08-05T09:31:30.490Z,71.61
2023-08-05T09:33:58.736Z,70.13
2023-08-05T09:36:28.420Z,66.04
2023-08-05T09:39:07.695Z,67.31
2023-08-05T09:41:37.059Z,66.71
2023-08-05T09:44:06.760Z,64.22
2023-08-05T09:46:41.366Z,65.22
2023-08-05T09:49:10.848Z,63.21
2023-08-05T09:51:43.592Z,63.00
2023-08-05T09:54:17.143Z,63.45
2023-08-05T09:56:46.730Z,63.69
2023-08-05T09:59:16.750Z,63.40
2023-08-05T10:01:47.306Z,63.56
2023-08-05T10:04:17.745Z,63.47
2023-08-05T10:06:49.286Z,63.46
2023-08-05T10:09:19.103Z,63.90
2023-08-05T10:11:48.069Z,64.17
2023-08-05T10:14:17.506Z,63.19
2023-08-05T10:16:47.128Z,61.88
2023-08-05T10:19:15.551Z,61.44
2023-08-05T10:21:44.083Z,62.42
2023-08-05T10:24:12.470Z,60.51
2023-08-05T10:26:46.740Z,60.36
2023-08-05T10:29:28.121Z,60.55
2023-08-05T10:32:10.722Z,61.93
2023-08-05T10:34:39.159Z,62.24
2023-08-05T10:37:07.588Z,60.77
2023-08-05T10:39:42.239Z,60.12
2023-08-05T10:42:22.406Z,60.70
2023-08-05T10:44:56.602Z,61.09
2023-08-05T10:47:25.381Z,60.42
2023-08-05T10:50:00.766Z,61.59
2023-08-05T10:52:31.088Z,61.74
2023-08-05T10:55:00.202Z,59.77
2023-08-05T10:57:47.157Z,57.89
2023-08-05T11:00:25.769Z,58.13
2023-08-05T11:03:26.716Z,59.16
2023-08-05T11:06:01.394Z,59.30
2023-08-05T11:08:31.900Z,59.61
2023-08-05T11:11:03.587Z,60.58
2023-08-05T11:13:38.021Z,60.94
2023-08-05T11:16:11.375Z,60.37
2023-08-05T11:18:40.927Z,60.44
2023-08-05T11:21:10.719Z,59.94
2023-08-05T11:23:40.921Z,60.62
2023-08-05T11:26:10.479Z,60.44
2023-08-05T11:28:44.299Z,59.56
2023-08-05T11:31:21.653Z,58.59
2023-08-05T11:33:50.403Z,58.80
2023-08-05T11:36:19.269Z,58.05
2023-08-05T11:38:51.952Z,58.92
2023-08-05T11:41:20.376Z,60.35
2023-08-05T11:43:50.276Z,59.40
2023-08-05T11:46:28.510Z,57.46
2023-08-05T11:49:10.807Z,57.48
2023-08-05T11:51:49.287Z,59.76
2023-08-05T11:54:26.937Z,59.96
2023-08-05T11:56:55.465Z,59.48
2023-08-05T11:59:41.646Z,60.79
2023-08-05T12:02:10.610Z,60.17
2023-08-05T12:04:44.971Z,60.01
2023-08-05T12:07:14.701Z,59.38
2023-08-05T12:09:43.553Z,58.58
2023-08-05T12:12:18.072Z,58.18
2023-08-05T12:14:47.816Z,58.89
2023-08-05T12:17:16.986Z,57.93
2023-08-05T12:19:46.824Z,57.25
2023-08-05T12:22:15.175Z,57.80
2023-08-05T12:24:43.657Z,58.41
2023-08-05T12:27:11.944Z,58.46
2023-08-05T12:29:40.139Z,58.58
2023-08-05T12:32:09.946Z,58.69
2023-08-05T12:34:38.253Z,58.27
2023-08-05T12:37:06.873Z,58.30
2023-08-05T12:39:35.088Z,58.17
2023-08-05T12:42:03.390Z,57.86
2023-08-05T12:44:31.684Z,59.05
2023-08-05T12:47:00.001Z,58.61
2023-08-05T12:49:30.048Z,58.42
2023-08-05T12:51:58.997Z,58.62
2023-08-05T12:54:27.205Z,58.80
2023-08-05T12:56:55.604Z,58.71
2023-08-05T12:59:24.021Z,59.26
2023-08-05T13:01:52.344Z,59.19
2023-08-05T13:04:20.619Z,59.21
2023-08-05T13:06:50.453Z,58.55
2023-08-05T13:09:19.682Z,58.68
2023-08-05T13:11:48.362Z,59.23
2023-08-05T13:14:16.766Z,59.48
2023-08-05T13:16:45.207Z,58.97
2023-08-05T13:19:16.247Z,59.12
2023-08-05T13:21:44.694Z,57.57
2023-08-05T13:24:14.416Z,58.23
2023-08-05T13:26:42.801Z,59.41
2023-08-05T13:29:11.140Z,59.72
2023-08-05T13:31:39.449Z,59.79
2023-08-05T13:34:07.799Z,59.40
2023-08-05T13:36:36.125Z,58.69
2023-08-05T13:39:04.464Z,58.62
2023-08-05T13:41:34.228Z,58.37
2023-08-05T13:44:02.590Z,58.00
2023-08-05T13:46:31.032Z,58.09
2023-08-05T13:48:59.481Z,57.71
2023-08-05T13:51:27.845Z,56.93
2023-08-05T13:53:58.205Z,57.06
2023-08-05T13:56:27.422Z,56.43
2023-08-05T13:58:57.142Z,56.14
2023-08-05T14:01:25.594Z,56.98
2023-08-05T14:03:53.947Z,57.21
2023-08-05T14:06:22.370Z,57.13
2023-08-05T14:08:52.089Z,56.47
2023-08-05T14:11:20.683Z,56.85
2023-08-05T14:13:48.932Z,56.87
2023-08-05T14:16:21.044Z,57.17
2023-08-05T14:18:49.588Z,57.40
2023-08-05T14:21:17.804Z,58.25
2023-08-05T14:23:46.079Z,58.99
2023-08-05T14:26:15.042Z,57.82
2023-08-05T14:28:43.572Z,58.04
2023-08-05T14:31:11.827Z,58.56
2023-08-05T14:33:41.569Z,56.12
2023-08-05T14:36:13.672Z,58.14
2023-08-05T14:38:41.875Z,58.77
2023-08-05T14:41:15.788Z,58.17
2023-08-05T14:43:44.215Z,58.02
2023-08-05T14:46:12.802Z,57.54
2023-08-05T14:48:42.732Z,59.05
2023-08-05T14:51:10.954Z,58.33
2023-08-05T14:53:39.361Z,58.62
2023-08-05T14:56:07.756Z,58.74
2023-08-05T14:58:36.098Z,59.89
2023-08-05T15:01:06.692Z,58.79
2023-08-05T15:03:35.151Z,57.30
2023-08-05T15:06:05.013Z,57.52
2023-08-05T15:08:33.395Z,57.01
2023-08-05T15:11:02.034Z,57.59
2023-08-05T15:13:30.419Z,57.55
2023-08-05T15:15:59.958Z,56.97
2023-08-05T15:18:28.448Z,56.70
2023-08-05T15:20:56.768Z,57.12
2023-08-05T15:23:30.889Z,56.63
2023-08-05T15:26:00.276Z,55.89
2023-08-05T15:28:28.527Z,56.84
2023-08-05T15:30:56.884Z,58.04
2023-08-05T15:33:25.881Z,57.71
2023-08-05T15:35:54.168Z,57.55
2023-08-05T15:38:22.510Z,58.34
2023-08-05T15:40:59.138Z,58.73
2023-08-05T15:43:27.384Z,57.39
2023-08-05T15:45:56.981Z,57.36
2023-08-05T15:48:25.838Z,58.34
2023-08-05T15:50:54.235Z,58.83
2023-08-05T15:53:22.613Z,58.43
2023-08-05T15:56:00.291Z,58.49
2023-08-05T15:58:29.602Z,57.25
2023-08-05T16:01:01.923Z,56.26
2023-08-05T16:03:30.365Z,57.16
2023-08-05T16:06:02.986Z,58.37
2023-08-05T16:08:32.093Z,57.65
2023-08-05T16:11:03.306Z,58.15
2023-08-05T16:13:32.016Z,57.50
2023-08-05T16:16:08.045Z,57.96
2023-08-05T16:18:37.111Z,57.57
2023-08-05T16:21:15.896Z,57.49
2023-08-05T16:23:44.854Z,58.19
2023-08-05T16:26:15.950Z,58.14
2023-08-05T16:28:44.534Z,58.99
2023-08-05T16:31:12.901Z,59.00
2023-08-05T16:33:41.682Z,58.88
2023-08-05T16:36:10.394Z,58.51
2023-08-05T16:38:39.418Z,59.18
2023-08-05T16:41:08.720Z,58.08
2023-08-05T16:43:39.054Z,58.84
2023-08-05T16:46:07.848Z,58.15
2023-08-05T16:48:39.168Z,58.78
2023-08-05T16:51:07.520Z,59.54
2023-08-05T16:53:35.811Z,59.38
2023-08-05T16:56:05.081Z,58.92
2023-08-05T16:58:33.780Z,58.94
2023-08-05T17:01:03.593Z,60.13
2023-08-05T17:03:31.934Z,60.28
2023-08-05T17:06:00.270Z,60.40
2023-08-05T17:08:28.837Z,61.16
2023-08-05T17:10:57.100Z,61.94
2023-08-05T17:13:25.447Z,63.31
2023-08-05T17:15:54.044Z,64.23
2023-08-05T17:18:23.725Z,64.74
2023-08-05T17:20:56.088Z,65.66
2023-08-05T17:23:24.721Z,66.52
2023-08-05T17:25:53.153Z,66.51
2023-08-05T17:28:21.503Z,66.59
2023-08-05T17:30:50.730Z,66.52
2023-08-05T17:33:19.310Z,67.29
2023-08-05T17:35:53.895Z,67.45
2023-08-05T17:38:24.082Z,66.68
2023-08-05T17:40:53.566Z,66.57
2023-08-05T17:43:22.135Z,67.59
2023-08-05T17:45:58.369Z,68.02
2023-08-05T17:48:26.715Z,67.72
2023-08-05T17:51:00.951Z,67.61
2023-08-05T17:53:29.298Z,67.84
2023-08-05T17:55:57.561Z,67.43
2023-08-05T17:58:26.095Z,67.36
2023-08-05T18:00:54.392Z,67.60
2023-08-05T18:03:22.890Z,67.88
2023-08-05T18:05:56.931Z,68.62
2023-08-05T18:08:34.077Z,68.96
2023-08-05T18:11:02.408Z,69.34
2023-08-05T18:13:30.842Z,69.47
2023-08-05T18:15:59.075Z,69.38
2023-08-05T18:18:27.349Z,69.20
2023-08-05T18:20:57.501Z,69.26
2023-08-05T18:23:25.947Z,69.22
2023-08-05T18:25:56.140Z,69.60
2023-08-05T18:28:24.589Z,69.85
2023-08-05T18:30:54.366Z,70.13
2023-08-05T18:33:22.920Z,70.17
2023-08-05T18:35:51.379Z,70.25
2023-08-05T18:38:19.988Z,70.49
2023-08-05T18:40:48.321Z,70.77
2023-08-05T18:43:19.913Z,70.90
2023-08-05T18:45:55.230Z,71.19
2023-08-05T18:48:23.784Z,71.26
2023-08-05T18:50:52.047Z,70.77
2023-08-05T18:53:20.392Z,71.36
2023-08-05T18:55:49.346Z,71.71
2023-08-05T18:58:19.983Z,71.85
2023-08-05T19:00:51.138Z,71.99
2023-08-05T19:03:20.423Z,72.31
2023-08-05T19:05:58.564Z,72.52
2023-08-05T19:08:27.920Z,72.89
2023-08-05T19:10:56.349Z,72.69
2023-08-05T19:13:27.196Z,73.14
2023-08-05T19:16:01.775Z,73.28
2023-08-05T19:18:32.569Z,73.86
2023-08-05T19:21:04.583Z,74.40
2023-08-05T19:23:32.871Z,74.69
2023-08-05T19:26:01.981Z,75.04
2023-08-05T19:28:31.919Z,75.25
2023-08-05T19:31:06.003Z,75.74
2023-08-05T19:33:34.532Z,75.87
2023-08-05T19:36:13.017Z,76.27
2023-08-05T19:38:42.472Z,76.58
2023-08-05T19:41:11.483Z,77.14
2023-08-05T19:43:42.495Z,77.18
2023-08-05T19:46:12.676Z,77.10
2023-08-05T19:48:43.006Z,77.21
2023-08-05T19:51:14.056Z,76.99
2023-08-05T19:53:43.883Z,77.31
2023-08-05T19:56:12.259Z,77.25
2023-08-05T19:58:42.163Z,77.30
2023-08-05T20:01:11.575Z,77.72
2023-08-05T20:03:41.034Z,77.41
2023-08-05T20:06:09.649Z,77.49
2023-08-05T20:08:37.980Z,77.71
2023-08-05T20:11:06.334Z,78.15
2023-08-05T20:13:34.651Z,77.85
2023-08-05T20:16:04.829Z,77.80
2023-08-05T20:18:33.241Z,78.10
2023-08-05T20:21:03.365Z,78.56
2023-08-05T20:23:33.466Z,78.35
2023-08-05T20:26:08.708Z,79.07
2023-08-05T20:28:37.537Z,79.10
2023-08-05T20:31:07.280Z,79.17
2023-08-05T20:33:35.574Z,79.84
2023-08-05T20:36:03.954Z,79.93
2023-08-05T20:38:32.285Z,79.96
2023-08-05T20:41:03.941Z,79.85
2023-08-05T20:43:32.889Z,80.23
2023-08-05T20:46:01.182Z,80.01
2023-08-05T20:48:30.799Z,80.18
2023-08-05T20:51:00.220Z,80.19
2023-08-05T20:53:28.523Z,80.23
2023-08-05T20:55:56.840Z,80.40
2023-08-05T20:58:25.450Z,80.78
2023-08-05T21:01:00.859Z,80.72
2023-08-05T21:03:30.842Z,80.76
2023-08-05T21:06:02.466Z,80.94
2023-08-05T21:08:31.204Z,81.12
2023-08-05T21:11:05.770Z,81.25
2023-08-05T21:13:34.333Z,81.09
2023-08-05T21:16:03.399Z,81.25
2023-08-05T21:18:33.897Z,81.37
2023-08-05T21:21:02.529Z,81.07
2023-08-05T21:23:30.915Z,81.36
2023-08-05T21:25:59.480Z,81.45
2023-08-05T21:28:27.852Z,81.55
2023-08-05T21:31:00.702Z,81.59
2023-08-05T21:33:29.717Z,81.93
2023-08-05T21:36:00.923Z,81.82
2023-08-05T21:38:29.623Z,81.97
2023-08-05T21:40:58.467Z,82.05
2023-08-05T21:43:26.812Z,82.51
2023-08-05T21:45:57.478Z,82.21
2023-08-05T21:48:26.565Z,82.47
2023-08-05T21:50:54.820Z,82.33
2023-08-05T21:53:24.545Z,82.15
2023-08-05T21:55:53.081Z,82.64
2023-08-05T21:58:21.437Z,82.78
2023-08-05T22:00:50.794Z,82.72
2023-08-05T22:03:19.087Z,82.77
2023-08-05T22:05:47.399Z,82.80
2023-08-05T22:08:15.697Z,83.04
2023-08-05T22:10:47.525Z,83.31
2023-08-05T22:13:15.889Z,83.49
2023-08-05T22:15:45.207Z,83.31
2023-08-05T22:18:13.523Z,83.45
2023-08-05T22:20:49.325Z,83.47
2023-08-05T22:23:18.035Z,83.21
2023-08-05T22:25:48.031Z,83.36
2023-08-05T22:28:16.299Z,83.64
2023-08-05T22:30:44.783Z,83.69
2023-08-05T22:33:13.083Z,83.94
2023-08-05T22:35:41.398Z,83.85
2023-08-05T22:38:09.663Z,83.99
2023-08-05T22:40:38.799Z,83.96
2023-08-05T22:43:08.539Z,83.89
2023-08-05T22:45:36.942Z,83.85
2023-08-05T22:48:05.522Z,83.98
2023-08-05T22:50:33.877Z,83.86
2023-08-05T22:53:02.469Z,84.21
2023-08-05T22:55:30.956Z,84.03
2023-08-05T22:57:59.224Z,84.47
2023-08-05T23:00:28.912Z,84.02
2023-08-05T23:02:57.512Z,84.43
2023-08-05T23:05:25.792Z,84.45
2023-08-05T23:07:54.147Z,84.61
2023-08-05T23:10:22.584Z,84.56
2023-08-05T23:12:50.912Z,84.78
2023-08-05T23:15:20.060Z,84.83
2023-08-05T23:17:50.468Z,84.73
2023-08-05T23:20:18.732Z,85.13
2023-08-05T23:22:47.123Z,84.94
2023-08-05T23:25:15.789Z,84.90
2023-08-05T23:27:44.068Z,84.94
2023-08-05T23:30:12.675Z,85.24
2023-08-05T23:32:41.503Z,85.16
2023-08-05T23:35:11.772Z,85.11
2023-08-05T23:37:40.470Z,85.42
2023-08-05T23:40:10.753Z,85.55
2023-08-05T23:42:38.953Z,85.54
2023-08-05T23:45:08.931Z,85.33
2023-08-05T23:47:38.430Z,85.20
2023-08-05T23:50:07.792Z,85.52
2023-08-05T23:52:37.545Z,85.35
2023-08-05T23:55:06.437Z,85.50
2023-08-05T23:57:34.671Z,85.75
